Hozan Maru — JJ4010 — position and weather

sailwx.info

Track history (hours):
 
Tides and Currents Weather Stations Pressure Air Temp Water Temp Dewpoint Dewpoint Depression Visibility Wind Speed Wind Dir Waves Ship Positions

Hozan Maru

Last reported at 2016-Aug-06 04:33 UTC. Time now 2016-Aug-25 20:18 UTC.
Position N 34°39' E 135°29'.
Warning: this ship's position is 19 days out of date.

Length 38 m; draft 3.6 m.

Type: Tug. MMSI: 431401501.

Date/timePositionNaut miles runAvg speedWind from/ knotsBaromVisibWave heightAir tempDewpointWater temp
2016-Aug-06 04:33N 34°39' E 135°29'0 0.0
2016-Aug-06 02:33N 34°39' E 135°29'0 0.0
2016-Aug-06 01:33N 34°39' E 135°29'0 0.0
2016-Aug-05 09:23N 34°39' E 135°29'5 6.1
2016-Aug-05 08:33N 34°40' E 135°23'10 1.2
2016-Aug-05 00:33N 34°40' E 135°11'  
2016-Jul-31 06:33N 34°41' E 135°16'7 7.3
2016-Jul-31 05:33N 34°40' E 135°25'0 0.3
2016-Jul-31 04:33N 34°40' E 135°25'0 0.0
2016-Jul-31 03:33N 34°40' E 135°25'2 1.9
2016-Jul-31 02:33N 34°38' E 135°24'1 0.7
2016-Jul-31 01:33N 34°38' E 135°23'4 4.3
2016-Jul-31 00:33N 34°40' E 135°27'0 0.0
2016-Jul-30 08:12N 34°40' E 135°27'2 3.3
2016-Jul-30 07:33N 34°39' E 135°26'2 2.1
2016-Jul-30 06:33N 34°40' E 135°27'0 0.0
2016-Jul-30 05:33N 34°40' E 135°27'0 0.0
2016-Jul-30 04:33N 34°40' E 135°27'0 0.0
2016-Jul-30 03:33N 34°40' E 135°27'7 6.7
2016-Jul-30 02:30N 34°33' E 135°25'1 0.9
2016-Jul-30 01:33N 34°33' E 135°26'0 0.5
2016-Jul-30 00:33N 34°33' E 135°25'5 5.2
2016-Jul-29 23:33N 34°34' E 135°19'9 9.1
2016-Jul-29 22:33N 34°40' E 135°11'  
Track history (hours):
 
Tides and Currents Weather Stations Pressure Air Temp Water Temp Dewpoint Dewpoint Depression Visibility Wind Speed Wind Dir Waves Ship Positions

Hozan Maru

Last reported at 2016-Aug-06 04:33 UTC. Time now 2016-Aug-25 20:18 UTC.
Position N 34°39' E 135°29'.
Warning: this ship's position is 19 days out of date.

Length 38 m; draft 3.6 m.

Type: Tug. MMSI: 431401501.

Date/timePositionNaut miles runAvg speedWind from/ knotsBaromVisibWave heightAir tempDewpointWater temp
2016-Aug-06 04:33N 34°39' E 135°29'0 0.0
2016-Aug-06 02:33N 34°39' E 135°29'0 0.0
2016-Aug-06 01:33N 34°39' E 135°29'0 0.0
2016-Aug-05 09:23N 34°39' E 135°29'5 6.1
2016-Aug-05 08:33N 34°40' E 135°23'10 1.2
2016-Aug-05 00:33N 34°40' E 135°11'  
2016-Jul-31 06:33N 34°41' E 135°16'7 7.3
2016-Jul-31 05:33N 34°40' E 135°25'0 0.3
2016-Jul-31 04:33N 34°40' E 135°25'0 0.0
2016-Jul-31 03:33N 34°40' E 135°25'2 1.9
2016-Jul-31 02:33N 34°38' E 135°24'1 0.7
2016-Jul-31 01:33N 34°38' E 135°23'4 4.3
2016-Jul-31 00:33N 34°40' E 135°27'0 0.0
2016-Jul-30 08:12N 34°40' E 135°27'2 3.3
2016-Jul-30 07:33N 34°39' E 135°26'2 2.1
2016-Jul-30 06:33N 34°40' E 135°27'0 0.0
2016-Jul-30 05:33N 34°40' E 135°27'0 0.0
2016-Jul-30 04:33N 34°40' E 135°27'0 0.0
2016-Jul-30 03:33N 34°40' E 135°27'7 6.7
2016-Jul-30 02:30N 34°33' E 135°25'1 0.9
2016-Jul-30 01:33N 34°33' E 135°26'0 0.5
2016-Jul-30 00:33N 34°33' E 135°25'5 5.2
2016-Jul-29 23:33N 34°34' E 135°19'9 9.1
2016-Jul-29 22:33N 34°40' E 135°11'  

Dump ship's entire track history